sensor_id;sensor_type;location;lat;lon;timestamp;temperature;humidity
61201;DHT22;47065;52.898;6.992;2023-11-21T00:01:02;8.30;99.90
61201;DHT22;47065;52.898;6.992;2023-11-21T00:03:30;8.30;99.90
61201;DHT22;47065;52.898;6.992;2023-11-21T00:05:56;8.30;99.90
61201;DHT22;47065;52.898;6.992;2023-11-21T00:08:21;8.30;99.90
61201;DHT22;47065;52.898;6.992;2023-11-21T00:10:47;8.30;99.90
61201;DHT22;47065;52.898;6.992;2023-11-21T00:13:14;8.40;99.90
61201;DHT22;47065;52.898;6.992;2023-11-21T00:15:39;8.40;99.90
61201;DHT22;47065;52.898;6.992;2023-11-21T00:18:06;8.30;99.90
61201;DHT22;47065;52.898;6.992;2023-11-21T00:20:32;8.40;99.90
61201;DHT22;47065;52.898;6.992;2023-11-21T00:22:57;8.30;99.90
61201;DHT22;47065;52.898;6.992;2023-11-21T00:25:24;8.40;99.90
61201;DHT22;47065;52.898;6.992;2023-11-21T00:27:50;8.30;99.90
61201;DHT22;47065;52.898;6.992;2023-11-21T00:30:16;8.30;99.90
61201;DHT22;47065;52.898;6.992;2023-11-21T00:32:42;8.40;99.90
61201;DHT22;47065;52.898;6.992;2023-11-21T00:35:08;8.30;99.90
61201;DHT22;47065;52.898;6.992;2023-11-21T00:37:34;8.30;99.90
61201;DHT22;47065;52.898;6.992;2023-11-21T00:40:00;8.30;99.90
61201;DHT22;47065;52.898;6.992;2023-11-21T00:42:29;8.40;99.90
61201;DHT22;47065;52.898;6.992;2023-11-21T00:44:54;8.40;99.90
61201;DHT22;47065;52.898;6.992;2023-11-21T00:47:20;8.30;99.90
61201;DHT22;47065;52.898;6.992;2023-11-21T00:49:45;8.30;99.90
61201;DHT22;47065;52.898;6.992;2023-11-21T00:52:11;8.40;99.90
61201;DHT22;47065;52.898;6.992;2023-11-21T00:54:37;8.40;99.90
61201;DHT22;47065;52.898;6.992;2023-11-21T00:57:02;8.30;99.90
61201;DHT22;47065;52.898;6.992;2023-11-21T00:59:28;8.30;99.90
61201;DHT22;47065;52.898;6.992;2023-11-21T01:01:54;8.40;99.90
61201;DHT22;47065;52.898;6.992;2023-11-21T01:04:20;8.40;99.90
61201;DHT22;47065;52.898;6.992;2023-11-21T01:06:45;8.40;99.90
61201;DHT22;47065;52.898;6.992;2023-11-21T01:09:11;8.40;99.90
61201;DHT22;47065;52.898;6.992;2023-11-21T01:11:38;8.40;99.90
61201;DHT22;47065;52.898;6.992;2023-11-21T01:14:04;8.40;99.90
61201;DHT22;47065;52.898;6.992;2023-11-21T01:16:30;8.40;99.90
61201;DHT22;47065;52.898;6.992;2023-11-21T01:18:58;8.40;99.90
61201;DHT22;47065;52.898;6.992;2023-11-21T01:21:24;8.40;99.90
61201;DHT22;47065;52.898;6.992;2023-11-21T01:23:50;8.40;99.90
61201;DHT22;47065;52.898;6.992;2023-11-21T01:26:16;8.50;99.90
61201;DHT22;47065;52.898;6.992;2023-11-21T01:28:41;8.50;99.90
61201;DHT22;47065;52.898;6.992;2023-11-21T01:31:07;8.50;99.90
61201;DHT22;47065;52.898;6.992;2023-11-21T01:33:33;8.50;99.90
61201;DHT22;47065;52.898;6.992;2023-11-21T01:35:58;8.40;99.90
61201;DHT22;47065;52.898;6.992;2023-11-21T01:38:25;8.50;99.90
61201;DHT22;47065;52.898;6.992;2023-11-21T01:40:51;8.50;99.90
61201;DHT22;47065;52.898;6.992;2023-11-21T01:43:17;8.50;99.90
61201;DHT22;47065;52.898;6.992;2023-11-21T01:45:43;8.50;99.90
61201;DHT22;47065;52.898;6.992;2023-11-21T01:48:10;8.50;99.90
61201;DHT22;47065;52.898;6.992;2023-11-21T01:50:36;8.50;99.90
61201;DHT22;47065;52.898;6.992;2023-11-21T01:53:02;8.50;99.90
61201;DHT22;47065;52.898;6.992;2023-11-21T01:55:28;8.50;99.90
61201;DHT22;47065;52.898;6.992;2023-11-21T01:57:56;8.50;99.90
61201;DHT22;47065;52.898;6.992;2023-11-21T02:00:22;8.50;99.90
61201;DHT22;47065;52.898;6.992;2023-11-21T02:02:49;8.50;99.90
61201;DHT22;47065;52.898;6.992;2023-11-21T02:05:16;8.60;99.90
61201;DHT22;47065;52.898;6.992;2023-11-21T02:07:44;8.60;99.90
61201;DHT22;47065;52.898;6.992;2023-11-21T02:10:11;8.60;99.90
61201;DHT22;47065;52.898;6.992;2023-11-21T02:12:43;8.60;99.90
61201;DHT22;47065;52.898;6.992;2023-11-21T02:15:13;8.60;99.90
61201;DHT22;47065;52.898;6.992;2023-11-21T02:17:52;8.60;99.90
61201;DHT22;47065;52.898;6.992;2023-11-21T02:20:20;8.60;99.90
61201;DHT22;47065;52.898;6.992;2023-11-21T02:22:50;8.60;99.90
61201;DHT22;47065;52.898;6.992;2023-11-21T02:25:21;8.60;99.90
61201;DHT22;47065;52.898;6.992;2023-11-21T02:27:46;8.60;99.90
61201;DHT22;47065;52.898;6.992;2023-11-21T02:30:14;8.50;99.90
61201;DHT22;47065;52.898;6.992;2023-11-21T02:32:41;8.60;99.90
61201;DHT22;47065;52.898;6.992;2023-11-21T02:35:08;8.60;99.90
61201;DHT22;47065;52.898;6.992;2023-11-21T02:37:34;8.60;99.90
61201;DHT22;47065;52.898;6.992;2023-11-21T02:40:01;8.60;99.90
61201;DHT22;47065;52.898;6.992;2023-11-21T02:42:29;8.60;99.90
61201;DHT22;47065;52.898;6.992;2023-11-21T02:44:55;8.60;99.90
61201;DHT22;47065;52.898;6.992;2023-11-21T02:47:22;8.60;99.90
61201;DHT22;47065;52.898;6.992;2023-11-21T02:49:49;8.60;99.90
61201;DHT22;47065;52.898;6.992;2023-11-21T02:52:15;8.60;99.90
61201;DHT22;47065;52.898;6.992;2023-11-21T02:54:40;8.60;99.90
61201;DHT22;47065;52.898;6.992;2023-11-21T02:57:06;8.60;99.90
61201;DHT22;47065;52.898;6.992;2023-11-21T02:59:32;8.60;99.90
61201;DHT22;47065;52.898;6.992;2023-11-21T03:01:58;8.60;99.90
61201;DHT22;47065;52.898;6.992;2023-11-21T03:04:24;8.60;99.90
61201;DHT22;47065;52.898;6.992;2023-11-21T03:06:49;8.60;99.90
61201;DHT22;47065;52.898;6.992;2023-11-21T03:09:15;8.60;99.90
61201;DHT22;47065;52.898;6.992;2023-11-21T03:11:41;8.60;99.90
61201;DHT22;47065;52.898;6.992;2023-11-21T03:14:07;8.60;99.90
61201;DHT22;47065;52.898;6.992;2023-11-21T03:16:33;8.60;99.90
61201;DHT22;47065;52.898;6.992;2023-11-21T03:18:58;8.60;99.90
61201;DHT22;47065;52.898;6.992;2023-11-21T03:21:24;8.60;99.90
61201;DHT22;47065;52.898;6.992;2023-11-21T03:23:51;8.60;99.90
61201;DHT22;47065;52.898;6.992;2023-11-21T03:26:18;8.60;99.90
61201;DHT22;47065;52.898;6.992;2023-11-21T03:28:43;8.60;99.90
61201;DHT22;47065;52.898;6.992;2023-11-21T03:31:09;8.60;99.90
61201;DHT22;47065;52.898;6.992;2023-11-21T03:33:35;8.60;99.90
61201;DHT22;47065;52.898;6.992;2023-11-21T03:36:01;8.60;99.90
61201;DHT22;47065;52.898;6.992;2023-11-21T03:38:26;8.60;99.90
61201;DHT22;47065;52.898;6.992;2023-11-21T03:40:52;8.60;99.90
61201;DHT22;47065;52.898;6.992;2023-11-21T03:43:18;8.60;99.90
61201;DHT22;47065;52.898;6.992;2023-11-21T03:45:44;8.60;99.90
61201;DHT22;47065;52.898;6.992;2023-11-21T03:48:12;8.60;99.90
61201;DHT22;47065;52.898;6.992;2023-11-21T03:50:38;8.60;99.90
61201;DHT22;47065;52.898;6.992;2023-11-21T03:53:04;8.60;99.90
61201;DHT22;47065;52.898;6.992;2023-11-21T03:55:30;8.60;99.90
61201;DHT22;47065;52.898;6.992;2023-11-21T03:57:57;8.60;99.90
61201;DHT22;47065;52.898;6.992;2023-11-21T04:00:24;8.60;99.90
61201;DHT22;47065;52.898;6.992;2023-11-21T04:02:49;8.60;99.90
61201;DHT22;47065;52.898;6.992;2023-11-21T04:05:17;8.60;99.90
61201;DHT22;47065;52.898;6.992;2023-11-21T04:07:42;8.60;99.90
61201;DHT22;47065;52.898;6.992;2023-11-21T04:10:09;8.60;99.90
61201;DHT22;47065;52.898;6.992;2023-11-21T04:12:37;8.70;99.90
61201;DHT22;47065;52.898;6.992;2023-11-21T04:15:03;8.70;99.90
61201;DHT22;47065;52.898;6.992;2023-11-21T04:17:29;8.70;99.90
61201;DHT22;47065;52.898;6.992;2023-11-21T04:19:55;8.70;99.90
61201;DHT22;47065;52.898;6.992;2023-11-21T04:22:21;8.70;99.90
61201;DHT22;47065;52.898;6.992;2023-11-21T04:24:46;8.70;99.90
61201;DHT22;47065;52.898;6.992;2023-11-21T04:27:12;8.70;99.90
61201;DHT22;47065;52.898;6.992;2023-11-21T04:29:38;8.70;99.90
61201;DHT22;47065;52.898;6.992;2023-11-21T04:32:04;8.70;99.90
61201;DHT22;47065;52.898;6.992;2023-11-21T04:34:30;8.80;99.90
61201;DHT22;47065;52.898;6.992;2023-11-21T04:36:56;8.80;99.90
61201;DHT22;47065;52.898;6.992;2023-11-21T04:39:22;8.70;99.90
61201;DHT22;47065;52.898;6.992;2023-11-21T04:41:48;8.70;99.90
61201;DHT22;47065;52.898;6.992;2023-11-21T04:44:13;8.80;99.90
61201;DHT22;47065;52.898;6.992;2023-11-21T04:46:41;8.80;99.90
61201;DHT22;47065;52.898;6.992;2023-11-21T04:49:07;8.70;99.90
61201;DHT22;47065;52.898;6.992;2023-11-21T04:51:33;8.80;99.90
61201;DHT22;47065;52.898;6.992;2023-11-21T04:53:58;8.80;99.90
61201;DHT22;47065;52.898;6.992;2023-11-21T04:56:24;8.80;99.90
61201;DHT22;47065;52.898;6.992;2023-11-21T04:58:50;8.80;99.90
61201;DHT22;47065;52.898;6.992;2023-11-21T05:01:16;8.80;99.90
61201;DHT22;47065;52.898;6.992;2023-11-21T05:03:41;8.80;99.90
61201;DHT22;47065;52.898;6.992;2023-11-21T05:06:09;8.80;99.90
61201;DHT22;47065;52.898;6.992;2023-11-21T05:08:36;8.80;99.90
61201;DHT22;47065;52.898;6.992;2023-11-21T05:11:02;8.80;99.90
61201;DHT22;47065;52.898;6.992;2023-11-21T05:13:28;8.80;99.90
61201;DHT22;47065;52.898;6.992;2023-11-21T05:15:57;8.80;99.90
61201;DHT22;47065;52.898;6.992;2023-11-21T05:18:23;8.80;99.90
61201;DHT22;47065;52.898;6.992;2023-11-21T05:20:48;8.80;99.90
61201;DHT22;47065;52.898;6.992;2023-11-21T05:23:15;8.80;99.90
61201;DHT22;47065;52.898;6.992;2023-11-21T05:25:41;8.80;99.90
61201;DHT22;47065;52.898;6.992;2023-11-21T05:28:07;8.80;99.90
61201;DHT22;47065;52.898;6.992;2023-11-21T05:30:32;8.80;99.90
61201;DHT22;47065;52.898;6.992;2023-11-21T05:32:58;8.70;99.90
61201;DHT22;47065;52.898;6.992;2023-11-21T05:35:23;8.70;99.90
61201;DHT22;47065;52.898;6.992;2023-11-21T05:37:49;8.80;99.90
61201;DHT22;47065;52.898;6.992;2023-11-21T05:40:15;8.70;99.90
61201;DHT22;47065;52.898;6.992;2023-11-21T05:42:41;8.70;99.90
61201;DHT22;47065;52.898;6.992;2023-11-21T05:45:08;8.70;99.90
61201;DHT22;47065;52.898;6.992;2023-11-21T05:50:04;8.70;99.90
61201;DHT22;47065;52.898;6.992;2023-11-21T05:52:31;8.70;99.90
61201;DHT22;47065;52.898;6.992;2023-11-21T05:54:58;8.60;99.90
61201;DHT22;47065;52.898;6.992;2023-11-21T05:57:23;8.70;99.90
61201;DHT22;47065;52.898;6.992;2023-11-21T05:59:49;8.70;99.90
61201;DHT22;47065;52.898;6.992;2023-11-21T06:02:14;8.70;99.90
61201;DHT22;47065;52.898;6.992;2023-11-21T06:04:40;8.60;99.90
61201;DHT22;47065;52.898;6.992;2023-11-21T06:07:06;8.60;99.90
61201;DHT22;47065;52.898;6.992;2023-11-21T06:09:33;8.70;99.90
61201;DHT22;47065;52.898;6.992;2023-11-21T06:12:00;8.70;99.90
61201;DHT22;47065;52.898;6.992;2023-11-21T06:14:25;8.70;99.90
61201;DHT22;47065;52.898;6.992;2023-11-21T06:16:51;8.80;99.90
61201;DHT22;47065;52.898;6.992;2023-11-21T06:19:17;8.70;99.90
61201;DHT22;47065;52.898;6.992;2023-11-21T06:21:46;8.80;99.90
61201;DHT22;47065;52.898;6.992;2023-11-21T06:24:12;8.80;99.90
61201;DHT22;47065;52.898;6.992;2023-11-21T06:26:38;8.70;99.90
61201;DHT22;47065;52.898;6.992;2023-11-21T06:29:04;8.80;99.90
61201;DHT22;47065;52.898;6.992;2023-11-21T06:31:29;8.70;99.90
61201;DHT22;47065;52.898;6.992;2023-11-21T06:33:55;8.70;99.90
61201;DHT22;47065;52.898;6.992;2023-11-21T06:36:21;8.70;99.90
61201;DHT22;47065;52.898;6.992;2023-11-21T06:38:47;8.70;99.90
61201;DHT22;47065;52.898;6.992;2023-11-21T06:41:13;8.70;99.90
61201;DHT22;47065;52.898;6.992;2023-11-21T06:43:41;8.70;99.90
61201;DHT22;47065;52.898;6.992;2023-11-21T06:46:11;8.70;99.90
61201;DHT22;47065;52.898;6.992;2023-11-21T06:48:37;8.70;99.90
61201;DHT22;47065;52.898;6.992;2023-11-21T06:51:04;8.70;99.90
61201;DHT22;47065;52.898;6.992;2023-11-21T06:53:29;8.80;99.90
61201;DHT22;47065;52.898;6.992;2023-11-21T06:55:55;8.80;99.90
61201;DHT22;47065;52.898;6.992;2023-11-21T06:58:21;8.80;99.90
61201;DHT22;47065;52.898;6.992;2023-11-21T07:00:46;8.80;99.90
61201;DHT22;47065;52.898;6.992;2023-11-21T07:03:14;8.80;99.90
61201;DHT22;47065;52.898;6.992;2023-11-21T07:05:39;8.80;99.90
61201;DHT22;47065;52.898;6.992;2023-11-21T07:08:05;8.80;99.90
61201;DHT22;47065;52.898;6.992;2023-11-21T07:10:33;8.80;99.90
61201;DHT22;47065;52.898;6.992;2023-11-21T07:12:58;8.80;99.90
61201;DHT22;47065;52.898;6.992;2023-11-21T07:15:24;8.80;99.90
61201;DHT22;47065;52.898;6.992;2023-11-21T07:17:51;8.90;99.90
61201;DHT22;47065;52.898;6.992;2023-11-21T07:20:19;8.90;99.90
61201;DHT22;47065;52.898;6.992;2023-11-21T07:22:45;8.90;99.90
61201;DHT22;47065;52.898;6.992;2023-11-21T07:25:11;8.90;99.90
61201;DHT22;47065;52.898;6.992;2023-11-21T07:27:37;8.90;99.90
61201;DHT22;47065;52.898;6.992;2023-11-21T07:30:03;8.90;99.90
61201;DHT22;47065;52.898;6.992;2023-11-21T07:32:31;8.90;99.90
61201;DHT22;47065;52.898;6.992;2023-11-21T07:34:57;8.90;99.90
61201;DHT22;47065;52.898;6.992;2023-11-21T07:37:25;8.90;99.90
61201;DHT22;47065;52.898;6.992;2023-11-21T07:39:51;8.90;99.90
61201;DHT22;47065;52.898;6.992;2023-11-21T07:42:23;9.00;99.90
61201;DHT22;47065;52.898;6.992;2023-11-21T07:44:49;9.00;99.90
61201;DHT22;47065;52.898;6.992;2023-11-21T07:47:15;8.90;99.90
61201;DHT22;47065;52.898;6.992;2023-11-21T07:49:41;9.00;99.90
61201;DHT22;47065;52.898;6.992;2023-11-21T07:52:09;9.00;99.90
61201;DHT22;47065;52.898;6.992;2023-11-21T07:54:35;9.00;99.90
61201;DHT22;47065;52.898;6.992;2023-11-21T07:57:01;8.90;99.90
61201;DHT22;47065;52.898;6.992;2023-11-21T07:59:27;8.90;99.90
61201;DHT22;47065;52.898;6.992;2023-11-21T08:01:52;9.00;99.90
61201;DHT22;47065;52.898;6.992;2023-11-21T08:04:18;9.00;99.90
61201;DHT22;47065;52.898;6.992;2023-11-21T08:06:44;8.90;99.90
61201;DHT22;47065;52.898;6.992;2023-11-21T08:09:09;9.00;99.90
61201;DHT22;47065;52.898;6.992;2023-11-21T08:11:37;9.00;99.90
61201;DHT22;47065;52.898;6.992;2023-11-21T08:14:05;8.90;99.90
61201;DHT22;47065;52.898;6.992;2023-11-21T08:16:30;9.00;99.90
61201;DHT22;47065;52.898;6.992;2023-11-21T08:18:56;8.90;99.90
61201;DHT22;47065;52.898;6.992;2023-11-21T08:21:22;8.90;99.90
61201;DHT22;47065;52.898;6.992;2023-11-21T08:23:50;8.90;99.90
61201;DHT22;47065;52.898;6.992;2023-11-21T08:26:20;8.90;99.90
61201;DHT22;47065;52.898;6.992;2023-11-21T08:28:45;8.90;99.90
61201;DHT22;47065;52.898;6.992;2023-11-21T08:31:12;8.90;99.90
61201;DHT22;47065;52.898;6.992;2023-11-21T08:33:38;8.90;99.90
61201;DHT22;47065;52.898;6.992;2023-11-21T08:36:08;8.90;99.90
61201;DHT22;47065;52.898;6.992;2023-11-21T08:38:35;8.90;99.90
61201;DHT22;47065;52.898;6.992;2023-11-21T08:41:06;8.80;99.90
61201;DHT22;47065;52.898;6.992;2023-11-21T08:43:36;8.80;99.90
61201;DHT22;47065;52.898;6.992;2023-11-21T08:46:08;8.80;99.90
61201;DHT22;47065;52.898;6.992;2023-11-21T08:48:37;8.80;99.90
61201;DHT22;47065;52.898;6.992;2023-11-21T08:51:03;8.80;99.90
61201;DHT22;47065;52.898;6.992;2023-11-21T08:53:30;8.80;99.90
61201;DHT22;47065;52.898;6.992;2023-11-21T08:55:56;8.90;99.90
61201;DHT22;47065;52.898;6.992;2023-11-21T08:58:22;8.90;99.90
61201;DHT22;47065;52.898;6.992;2023-11-21T09:00:48;8.80;99.90
61201;DHT22;47065;52.898;6.992;2023-11-21T09:03:13;8.80;99.90
61201;DHT22;47065;52.898;6.992;2023-11-21T09:05:39;8.80;99.90
61201;DHT22;47065;52.898;6.992;2023-11-21T09:08:05;8.80;99.90
61201;DHT22;47065;52.898;6.992;2023-11-21T09:10:33;8.80;99.90
61201;DHT22;47065;52.898;6.992;2023-11-21T09:13:01;8.80;99.90
61201;DHT22;47065;52.898;6.992;2023-11-21T09:15:27;8.70;99.90
61201;DHT22;47065;52.898;6.992;2023-11-21T09:17:53;8.70;99.90
61201;DHT22;47065;52.898;6.992;2023-11-21T09:20:18;8.70;99.90
61201;DHT22;47065;52.898;6.992;2023-11-21T09:22:48;8.70;99.90
61201;DHT22;47065;52.898;6.992;2023-11-21T09:25:14;8.60;99.90
61201;DHT22;47065;52.898;6.992;2023-11-21T09:27:40;8.60;99.90
61201;DHT22;47065;52.898;6.992;2023-11-21T09:30:07;8.60;99.90
61201;DHT22;47065;52.898;6.992;2023-11-21T09:32:36;8.60;99.90
61201;DHT22;47065;52.898;6.992;2023-11-21T09:35:04;8.60;99.90
61201;DHT22;47065;52.898;6.992;2023-11-21T09:37:30;8.60;99.90
61201;DHT22;47065;52.898;6.992;2023-11-21T09:39:56;8.60;99.90
61201;DHT22;47065;52.898;6.992;2023-11-21T09:45:10;8.60;99.90
61201;DHT22;47065;52.898;6.992;2023-11-21T09:47:38;8.50;99.90
61201;DHT22;47065;52.898;6.992;2023-11-21T09:50:05;8.50;99.90
61201;DHT22;47065;52.898;6.992;2023-11-21T09:55:36;8.50;99.90
61201;DHT22;47065;52.898;6.992;2023-11-21T09:58:03;8.50;99.90
61201;DHT22;47065;52.898;6.992;2023-11-21T10:00:30;8.60;99.90
61201;DHT22;47065;52.898;6.992;2023-11-21T10:02:58;8.60;99.90
61201;DHT22;47065;52.898;6.992;2023-11-21T10:05:25;8.60;99.90
61201;DHT22;47065;52.898;6.992;2023-11-21T10:07:51;8.60;99.90
61201;DHT22;47065;52.898;6.992;2023-11-21T10:10:20;8.60;99.90
61201;DHT22;47065;52.898;6.992;2023-11-21T10:12:50;8.60;99.90
61201;DHT22;47065;52.898;6.992;2023-11-21T10:15:22;8.60;99.90
61201;DHT22;47065;52.898;6.992;2023-11-21T10:17:49;8.50;99.90
61201;DHT22;47065;52.898;6.992;2023-11-21T10:20:15;8.50;99.90
61201;DHT22;47065;52.898;6.992;2023-11-21T10:22:42;8.50;99.90
61201;DHT22;47065;52.898;6.992;2023-11-21T10:25:09;8.50;99.90
61201;DHT22;47065;52.898;6.992;2023-11-21T10:27:35;8.50;99.90
61201;DHT22;47065;52.898;6.992;2023-11-21T10:30:02;8.50;99.90
61201;DHT22;47065;52.898;6.992;2023-11-21T10:32:29;8.60;99.90
61201;DHT22;47065;52.898;6.992;2023-11-21T10:34:59;8.60;99.90
61201;DHT22;47065;52.898;6.992;2023-11-21T10:37:32;8.70;99.90
61201;DHT22;47065;52.898;6.992;2023-11-21T10:40:01;8.70;99.90
61201;DHT22;47065;52.898;6.992;2023-11-21T10:42:27;8.80;99.90
61201;DHT22;47065;52.898;6.992;2023-11-21T10:44:54;8.90;99.90
61201;DHT22;47065;52.898;6.992;2023-11-21T10:47:20;8.90;99.90
61201;DHT22;47065;52.898;6.992;2023-11-21T10:49:51;9.00;99.90
61201;DHT22;47065;52.898;6.992;2023-11-21T10:52:19;9.00;99.90
61201;DHT22;47065;52.898;6.992;2023-11-21T10:54:45;9.00;99.90
61201;DHT22;47065;52.898;6.992;2023-11-21T10:57:16;9.00;99.90
61201;DHT22;47065;52.898;6.992;2023-11-21T10:59:46;8.90;99.90
61201;DHT22;47065;52.898;6.992;2023-11-21T11:02:33;8.90;99.90
61201;DHT22;47065;52.898;6.992;2023-11-21T11:04:59;8.80;99.90
61201;DHT22;47065;52.898;6.992;2023-11-21T11:07:27;8.80;99.90
61201;DHT22;47065;52.898;6.992;2023-11-21T11:09:54;8.80;99.90
61201;DHT22;47065;52.898;6.992;2023-11-21T11:12:20;8.70;99.90
61201;DHT22;47065;52.898;6.992;2023-11-21T11:14:48;8.70;99.90
61201;DHT22;47065;52.898;6.992;2023-11-21T11:17:19;8.70;99.90
61201;DHT22;47065;52.898;6.992;2023-11-21T11:19:46;8.70;99.90
61201;DHT22;47065;52.898;6.992;2023-11-21T11:25:07;8.70;99.90
61201;DHT22;47065;52.898;6.992;2023-11-21T11:28:01;8.70;99.90
61201;DHT22;47065;52.898;6.992;2023-11-21T11:33:12;8.60;99.90
61201;DHT22;47065;52.898;6.992;2023-11-21T11:35:56;8.60;99.90
61201;DHT22;47065;52.898;6.992;2023-11-21T11:38:22;8.60;99.90
61201;DHT22;47065;52.898;6.992;2023-11-21T11:40:52;8.50;99.90
61201;DHT22;47065;52.898;6.992;2023-11-21T11:43:25;8.60;99.90
61201;DHT22;47065;52.898;6.992;2023-11-21T11:45:51;8.60;99.90
61201;DHT22;47065;52.898;6.992;2023-11-21T11:48:18;8.70;99.90
61201;DHT22;47065;52.898;6.992;2023-11-21T11:51:06;8.70;99.90
61201;DHT22;47065;52.898;6.992;2023-11-21T11:53:40;8.80;99.90
61201;DHT22;47065;52.898;6.992;2023-11-21T11:56:29;8.80;99.90
61201;DHT22;47065;52.898;6.992;2023-11-21T11:58:58;8.80;99.90
61201;DHT22;47065;52.898;6.992;2023-11-21T12:01:25;8.80;99.90
61201;DHT22;47065;52.898;6.992;2023-11-21T12:06:57;8.90;99.90
61201;DHT22;47065;52.898;6.992;2023-11-21T12:09:25;8.90;99.90
61201;DHT22;47065;52.898;6.992;2023-11-21T12:11:52;8.80;99.90
61201;DHT22;47065;52.898;6.992;2023-11-21T12:14:18;8.90;99.90
61201;DHT22;47065;52.898;6.992;2023-11-21T12:16:44;8.80;99.90
61201;DHT22;47065;52.898;6.992;2023-11-21T12:19:11;8.80;99.90
61201;DHT22;47065;52.898;6.992;2023-11-21T12:21:37;8.80;99.90
61201;DHT22;47065;52.898;6.992;2023-11-21T12:24:04;8.80;99.90
61201;DHT22;47065;52.898;6.992;2023-11-21T12:26:29;8.80;99.90
61201;DHT22;47065;52.898;6.992;2023-11-21T12:28:55;8.80;99.90
61201;DHT22;47065;52.898;6.992;2023-11-21T12:31:22;8.70;99.90
61201;DHT22;47065;52.898;6.992;2023-11-21T12:33:47;8.70;99.90
61201;DHT22;47065;52.898;6.992;2023-11-21T12:36:13;8.70;99.90
61201;DHT22;47065;52.898;6.992;2023-11-21T12:38:39;8.70;99.90
61201;DHT22;47065;52.898;6.992;2023-11-21T12:41:05;8.70;99.90
61201;DHT22;47065;52.898;6.992;2023-11-21T12:43:32;8.70;99.90
61201;DHT22;47065;52.898;6.992;2023-11-21T12:46:08;8.60;99.90
61201;DHT22;47065;52.898;6.992;2023-11-21T12:48:39;8.60;99.90
61201;DHT22;47065;52.898;6.992;2023-11-21T12:51:06;8.60;99.90
61201;DHT22;47065;52.898;6.992;2023-11-21T12:53:32;8.60;99.90
61201;DHT22;47065;52.898;6.992;2023-11-21T12:56:07;8.60;99.90
61201;DHT22;47065;52.898;6.992;2023-11-21T12:58:35;8.50;99.90
61201;DHT22;47065;52.898;6.992;2023-11-21T13:01:01;8.50;99.90
61201;DHT22;47065;52.898;6.992;2023-11-21T13:03:29;8.50;99.90
61201;DHT22;47065;52.898;6.992;2023-11-21T13:05:55;8.50;99.90
61201;DHT22;47065;52.898;6.992;2023-11-21T13:08:23;8.50;99.90
61201;DHT22;47065;52.898;6.992;2023-11-21T13:10:54;8.50;99.90
61201;DHT22;47065;52.898;6.992;2023-11-21T13:13:22;8.50;99.90
61201;DHT22;47065;52.898;6.992;2023-11-21T13:15:54;8.60;99.90
61201;DHT22;47065;52.898;6.992;2023-11-21T13:18:23;8.60;99.90
61201;DHT22;47065;52.898;6.992;2023-11-21T13:20:49;8.60;99.90
61201;DHT22;47065;52.898;6.992;2023-11-21T13:23:15;8.70;99.90
61201;DHT22;47065;52.898;6.992;2023-11-21T13:25:42;8.60;99.90
61201;DHT22;47065;52.898;6.992;2023-11-21T13:28:11;8.70;99.90
61201;DHT22;47065;52.898;6.992;2023-11-21T13:30:37;8.70;99.90
61201;DHT22;47065;52.898;6.992;2023-11-21T13:33:06;8.70;99.90
61201;DHT22;47065;52.898;6.992;2023-11-21T13:35:37;8.70;99.90
61201;DHT22;47065;52.898;6.992;2023-11-21T13:38:15;8.60;99.90
61201;DHT22;47065;52.898;6.992;2023-11-21T13:40:48;8.60;99.90
61201;DHT22;47065;52.898;6.992;2023-11-21T13:43:20;8.60;99.90
61201;DHT22;47065;52.898;6.992;2023-11-21T13:45:48;8.60;99.90
61201;DHT22;47065;52.898;6.992;2023-11-21T13:48:23;8.70;99.90
61201;DHT22;47065;52.898;6.992;2023-11-21T13:51:06;8.60;99.90
61201;DHT22;47065;52.898;6.992;2023-11-21T13:53:46;8.60;99.90
61201;DHT22;47065;52.898;6.992;2023-11-21T13:56:19;8.60;99.90
61201;DHT22;47065;52.898;6.992;2023-11-21T13:58:53;8.60;99.90
61201;DHT22;47065;52.898;6.992;2023-11-21T14:01:24;8.60;99.90
61201;DHT22;47065;52.898;6.992;2023-11-21T14:04:10;8.60;99.90
61201;DHT22;47065;52.898;6.992;2023-11-21T14:06:49;8.70;99.90
61201;DHT22;47065;52.898;6.992;2023-11-21T14:09:20;8.60;99.90
61201;DHT22;47065;52.898;6.992;2023-11-21T14:11:54;8.60;99.90
61201;DHT22;47065;52.898;6.992;2023-11-21T14:14:26;8.60;99.90
61201;DHT22;47065;52.898;6.992;2023-11-21T14:16:53;8.50;99.90
61201;DHT22;47065;52.898;6.992;2023-11-21T14:19:20;8.50;99.90
61201;DHT22;47065;52.898;6.992;2023-11-21T14:21:47;8.50;99.90
61201;DHT22;47065;52.898;6.992;2023-11-21T14:24:14;8.40;99.90
61201;DHT22;47065;52.898;6.992;2023-11-21T14:26:44;8.40;99.90
61201;DHT22;47065;52.898;6.992;2023-11-21T14:29:12;8.40;99.90
61201;DHT22;47065;52.898;6.992;2023-11-21T14:31:40;8.40;99.90
61201;DHT22;47065;52.898;6.992;2023-11-21T14:34:07;8.30;99.90
61201;DHT22;47065;52.898;6.992;2023-11-21T14:36:36;8.30;99.90
61201;DHT22;47065;52.898;6.992;2023-11-21T14:39:05;8.20;99.90
61201;DHT22;47065;52.898;6.992;2023-11-21T14:41:35;8.20;99.90
61201;DHT22;47065;52.898;6.992;2023-11-21T14:44:01;8.20;99.90
61201;DHT22;47065;52.898;6.992;2023-11-21T14:46:29;8.10;99.90
61201;DHT22;47065;52.898;6.992;2023-11-21T14:48:54;8.10;99.90
61201;DHT22;47065;52.898;6.992;2023-11-21T14:51:48;8.10;99.90
61201;DHT22;47065;52.898;6.992;2023-11-21T14:54:22;8.00;99.90
61201;DHT22;47065;52.898;6.992;2023-11-21T14:57:05;8.00;99.90
61201;DHT22;47065;52.898;6.992;2023-11-21T14:59:36;8.00;99.90
61201;DHT22;47065;52.898;6.992;2023-11-21T15:02:01;8.00;99.90
61201;DHT22;47065;52.898;6.992;2023-11-21T15:04:41;7.90;99.90
61201;DHT22;47065;52.898;6.992;2023-11-21T15:07:08;7.90;99.90
61201;DHT22;47065;52.898;6.992;2023-11-21T15:09:34;7.90;99.90
61201;DHT22;47065;52.898;6.992;2023-11-21T15:12:01;7.90;99.90
61201;DHT22;47065;52.898;6.992;2023-11-21T15:14:40;7.90;99.90
61201;DHT22;47065;52.898;6.992;2023-11-21T15:17:05;7.80;99.90
61201;DHT22;47065;52.898;6.992;2023-11-21T15:19:32;7.90;99.90
61201;DHT22;47065;52.898;6.992;2023-11-21T15:21:58;7.80;99.90
61201;DHT22;47065;52.898;6.992;2023-11-21T15:24:24;7.80;99.90
61201;DHT22;47065;52.898;6.992;2023-11-21T15:26:50;7.80;99.90
61201;DHT22;47065;52.898;6.992;2023-11-21T15:29:16;7.70;99.90
61201;DHT22;47065;52.898;6.992;2023-11-21T15:31:42;7.70;99.90
61201;DHT22;47065;52.898;6.992;2023-11-21T15:34:14;7.70;99.90
61201;DHT22;47065;52.898;6.992;2023-11-21T15:36:40;7.70;99.90
61201;DHT22;47065;52.898;6.992;2023-11-21T15:39:05;7.60;99.90
61201;DHT22;47065;52.898;6.992;2023-11-21T15:41:33;7.60;99.90
61201;DHT22;47065;52.898;6.992;2023-11-21T15:43:59;7.60;99.90
61201;DHT22;47065;52.898;6.992;2023-11-21T15:46:25;7.50;99.90
61201;DHT22;47065;52.898;6.992;2023-11-21T15:48:50;7.50;99.90
61201;DHT22;47065;52.898;6.992;2023-11-21T15:51:20;7.40;99.90
61201;DHT22;47065;52.898;6.992;2023-11-21T15:53:45;7.40;99.90
61201;DHT22;47065;52.898;6.992;2023-11-21T15:56:11;7.40;99.90
61201;DHT22;47065;52.898;6.992;2023-11-21T15:58:41;7.30;99.90
61201;DHT22;47065;52.898;6.992;2023-11-21T16:01:12;7.20;99.90
61201;DHT22;47065;52.898;6.992;2023-11-21T16:03:40;7.20;99.90